Time;durP1;ratioP1;P1;durP2;ratioP2;P2;SDS_P1;SDS_P2;PMS_P1;PMS_P2;Temp;Humidity;BMP_temperature;BMP_pressure;BME280_temperature;BME280_humidity;BME280_pressure;Samples;Min_cycle;Max_cycle;Signal;HPM_P1;HPM_P2
2022/03/21 00:01:17;;;;;;;15.37;8.50;;;4.90;76.90;;;;;;5031834;28;20208;-77
2022/03/21 00:03:43;;;;;;;19.07;7.80;;;4.80;76.90;;;;;;5031680;28;20431;-78
2022/03/21 00:06:09;;;;;;;26.07;9.47;;;4.80;77.00;;;;;;5030521;28;20470;-77
2022/03/21 00:08:35;;;;;;;18.80;8.67;;;4.80;77.20;;;;;;5030040;28;20412;-77
2022/03/21 00:11:01;;;;;;;28.30;10.00;;;4.70;77.30;;;;;;5029578;28;20188;-77
2022/03/21 00:13:27;;;;;;;21.87;9.70;;;4.70;77.40;;;;;;5030309;28;20210;-76
2022/03/21 00:15:54;;;;;;;21.23;8.70;;;4.70;77.40;;;;;;5030503;28;20431;-77
2022/03/21 00:18:20;;;;;;;20.87;9.10;;;4.60;77.40;;;;;;5031832;28;20527;-77
2022/03/21 00:20:49;;;;;;;21.10;8.87;;;4.60;77.60;;;;;;5031586;28;20478;-77
2022/03/21 00:23:15;;;;;;;22.17;9.10;;;4.60;77.80;;;;;;5031337;28;21174;-77
2022/03/21 00:25:40;;;;;;;24.47;9.70;;;4.50;77.90;;;;;;5030198;28;20924;-77
2022/03/21 00:28:07;;;;;;;15.73;8.23;;;4.50;78.00;;;;;;5030286;28;20422;-76
2022/03/21 00:30:34;;;;;;;18.03;8.93;;;4.50;77.90;;;;;;5030129;28;20863;-76
2022/03/21 00:33:00;;;;;;;16.50;8.70;;;4.50;78.10;;;;;;5029657;28;20458;-77
2022/03/21 00:35:27;;;;;;;19.80;8.90;;;4.50;78.00;;;;;;5029867;28;20419;-76
2022/03/21 00:37:53;;;;;;;18.70;10.47;;;4.50;78.10;;;;;;5029916;28;20661;-76
2022/03/21 00:40:19;;;;;;;21.30;10.53;;;4.40;78.30;;;;;;5031880;28;20419;-76
2022/03/21 00:42:46;;;;;;;20.03;9.60;;;4.40;78.30;;;;;;5029901;28;20431;-76
2022/03/21 00:45:15;;;;;;;15.50;8.40;;;4.40;78.50;;;;;;5029818;28;20669;-76
2022/03/21 00:47:41;;;;;;;21.67;10.00;;;4.40;78.40;;;;;;5029885;28;20431;-76
2022/03/21 00:50:09;;;;;;;20.30;9.07;;;4.40;78.30;;;;;;5029770;28;21060;-77
2022/03/21 00:52:42;;;;;;;17.83;8.40;;;4.40;78.50;;;;;;5029525;28;20415;-77
2022/03/21 00:55:09;;;;;;;20.20;9.27;;;4.30;78.40;;;;;;5030861;28;20904;-76
2022/03/21 00:57:36;;;;;;;18.47;8.77;;;4.40;78.70;;;;;;5031040;28;20910;-76
2022/03/21 01:00:08;;;;;;;16.67;8.50;;;4.30;78.80;;;;;;5030770;28;20407;-77
2022/03/21 01:02:37;;;;;;;15.37;8.30;;;4.30;79.00;;;;;;5029358;28;20839;-77
2022/03/21 01:05:03;;;;;;;19.83;9.03;;;4.30;79.10;;;;;;5029165;28;20484;-76
2022/03/21 01:07:29;;;;;;;18.53;8.30;;;4.30;79.00;;;;;;5030460;28;20392;-76
2022/03/21 01:09:55;;;;;;;16.27;8.60;;;4.20;79.30;;;;;;5029185;28;20943;-76
2022/03/21 01:12:20;;;;;;;22.63;9.93;;;4.20;79.20;;;;;;5030964;28;20255;-77
2022/03/21 01:14:46;;;;;;;19.53;8.20;;;4.20;79.30;;;;;;5029216;28;20203;-76
2022/03/21 01:17:12;;;;;;;18.37;10.17;;;4.20;79.30;;;;;;5029597;28;20419;-76
2022/03/21 01:19:37;;;;;;;17.40;9.10;;;4.20;79.50;;;;;;5029230;28;20180;-76
2022/03/21 01:22:05;;;;;;;17.33;8.60;;;4.10;79.50;;;;;;5029859;28;20580;-76
2022/03/21 01:24:35;;;;;;;21.67;8.80;;;4.10;79.70;;;;;;5028819;28;20203;-76
2022/03/21 01:27:02;;;;;;;19.17;9.30;;;4.00;79.50;;;;;;5030407;28;20504;-76
2022/03/21 01:29:28;;;;;;;16.43;8.87;;;4.00;79.80;;;;;;5028631;28;20459;-76
2022/03/21 01:31:53;;;;;;;16.97;9.30;;;4.00;79.90;;;;;;5028957;28;20429;-77
2022/03/21 01:34:19;;;;;;;22.50;9.07;;;3.90;80.00;;;;;;5028894;28;20196;-76
2022/03/21 01:36:44;;;;;;;19.27;8.70;;;3.90;80.20;;;;;;5029072;28;20176;-76
2022/03/21 01:39:10;;;;;;;15.50;8.47;;;3.90;80.40;;;;;;5028844;28;20629;-78
2022/03/21 01:41:36;;;;;;;20.10;8.73;;;3.90;80.30;;;;;;5030183;28;20235;-76
2022/03/21 01:44:07;;;;;;;21.90;8.90;;;3.90;80.30;;;;;;5029962;28;20196;-77
2022/03/21 01:46:33;;;;;;;20.33;9.23;;;3.80;80.30;;;;;;5028904;28;20423;-78
2022/03/21 01:49:00;;;;;;;16.13;8.10;;;3.80;80.20;;;;;;5028578;28;20419;-76
2022/03/21 01:51:27;;;;;;;17.63;7.90;;;3.80;80.10;;;;;;5028730;28;20510;-76
2022/03/21 01:56:40;;;;;;;18.20;9.00;;;3.80;80.20;;;;;;5030938;28;20400;-76
2022/03/21 01:59:07;;;;;;;17.30;8.10;;;3.80;80.30;;;;;;5029829;28;20407;-77
2022/03/21 02:01:33;;;;;;;20.23;8.30;;;3.70;80.30;;;;;;5028566;28;20458;-76
2022/03/21 02:03:59;;;;;;;23.93;9.07;;;3.70;80.40;;;;;;5028757;28;20439;-76
2022/03/21 02:06:25;;;;;;;17.73;8.20;;;3.70;80.50;;;;;;5028693;28;20243;-76
2022/03/21 02:08:51;;;;;;;20.03;8.60;;;3.60;80.60;;;;;;5028384;28;20225;-76
2022/03/21 02:11:19;;;;;;;20.47;9.47;;;3.60;80.60;;;;;;5028466;28;20471;-76
2022/03/21 02:13:45;;;;;;;17.37;8.67;;;3.60;80.60;;;;;;5028388;28;20569;-76
2022/03/21 02:16:10;;;;;;;18.00;7.73;;;3.60;80.70;;;;;;5028323;28;20506;-76
2022/03/21 02:18:40;;;;;;;18.93;8.57;;;3.50;80.80;;;;;;5028519;28;20634;-76
2022/03/21 02:21:15;;;;;;;17.73;8.40;;;3.50;80.90;;;;;;5030213;28;20196;-76
2022/03/21 02:23:52;;;;;;;15.97;8.33;;;3.40;81.10;;;;;;5029848;28;20648;-76
2022/03/21 02:26:19;;;;;;;17.63;9.10;;;3.40;81.10;;;;;;5028370;28;20490;-76
2022/03/21 02:28:47;;;;;;;16.60;8.20;;;3.50;80.90;;;;;;5029579;28;20506;-76
2022/03/21 02:31:14;;;;;;;19.30;9.20;;;3.40;81.10;;;;;;5029371;28;20455;-76
2022/03/21 02:33:40;;;;;;;20.53;8.33;;;3.40;81.20;;;;;;5030526;28;20479;-77
2022/03/21 02:36:08;;;;;;;19.00;8.37;;;3.40;81.40;;;;;;5032106;28;20442;-76
2022/03/21 02:38:34;;;;;;;16.67;8.97;;;3.40;81.50;;;;;;5032085;28;20576;-76
2022/03/21 02:41:00;;;;;;;17.20;8.20;;;3.30;81.70;;;;;;5032133;28;20637;-76
2022/03/21 02:43:26;;;;;;;16.57;8.80;;;3.30;81.70;;;;;;5032273;28;20435;-76
2022/03/21 02:45:51;;;;;;;18.83;8.63;;;3.30;81.60;;;;;;5033440;28;20181;-76
2022/03/21 02:48:18;;;;;;;15.20;7.50;;;3.20;81.80;;;;;;5033977;28;20177;-76
2022/03/21 02:51:00;;;;;;;19.73;8.50;;;3.20;81.60;;;;;;5032125;28;20710;-76
2022/03/21 02:53:29;;;;;;;18.23;8.10;;;3.20;81.60;;;;;;5031829;28;20816;-76
2022/03/21 02:55:55;;;;;;;19.40;7.37;;;3.20;81.60;;;;;;5033530;28;20472;-76
2022/03/21 02:58:20;;;;;;;15.40;8.10;;;3.20;81.70;;;;;;5032040;28;20513;-76
2022/03/21 03:00:46;;;;;;;19.80;9.00;;;3.10;81.70;;;;;;5031496;28;20455;-75
2022/03/21 03:03:11;;;;;;;15.73;7.60;;;3.10;81.30;;;;;;5031852;28;20192;-78
2022/03/21 03:05:37;;;;;;;19.17;8.73;;;3.10;81.20;;;;;;5031848;28;20196;-76
2022/03/21 03:08:03;;;;;;;19.10;7.70;;;3.10;81.40;;;;;;5031622;28;20764;-76
2022/03/21 03:10:30;;;;;;;24.70;9.20;;;3.10;81.40;;;;;;5031632;28;20180;-76
2022/03/21 03:12:55;;;;;;;15.07;7.30;;;3.10;81.40;;;;;;5031287;28;20520;-76
2022/03/21 03:15:21;;;;;;;16.23;8.47;;;3.00;81.50;;;;;;5032971;28;20450;-77
2022/03/21 03:17:46;;;;;;;21.60;9.40;;;3.00;81.50;;;;;;5032866;28;20177;-76
2022/03/21 03:20:12;;;;;;;17.03;7.50;;;3.00;81.40;;;;;;5031627;28;20181;-77
2022/03/21 03:22:39;;;;;;;15.83;8.27;;;3.00;81.40;;;;;;5031291;28;20486;-76
2022/03/21 03:25:05;;;;;;;19.33;8.33;;;3.00;81.40;;;;;;5032412;28;20436;-76
2022/03/21 03:27:31;;;;;;;18.60;8.23;;;3.00;81.50;;;;;;5031155;28;20448;-76
2022/03/21 03:29:58;;;;;;;16.10;9.50;;;3.00;81.40;;;;;;5031189;28;20794;-75
2022/03/21 03:32:24;;;;;;;15.70;7.70;;;3.00;81.50;;;;;;5031491;28;20184;-76
2022/03/21 03:34:50;;;;;;;16.57;7.90;;;3.00;81.60;;;;;;5031024;28;20451;-77
2022/03/21 03:37:16;;;;;;;17.20;7.80;;;2.90;81.50;;;;;;5031378;28;20458;-76
2022/03/21 03:39:43;;;;;;;14.73;7.77;;;2.90;81.50;;;;;;5032445;28;20173;-77
2022/03/21 03:42:09;;;;;;;14.50;7.50;;;2.90;81.50;;;;;;5032260;28;20879;-76
2022/03/21 03:44:34;;;;;;;18.63;8.37;;;2.90;81.70;;;;;;5030756;28;20489;-76
2022/03/21 03:47:00;;;;;;;17.90;8.07;;;2.80;81.80;;;;;;5032438;28;20176;-76
2022/03/21 03:49:26;;;;;;;15.87;8.37;;;2.80;81.70;;;;;;5030997;28;20172;-75
2022/03/21 03:51:52;;;;;;;14.83;7.13;;;2.70;81.70;;;;;;5030711;28;20834;-76
2022/03/21 03:54:17;;;;;;;22.00;8.10;;;2.70;81.90;;;;;;5032411;28;20431;-76
2022/03/21 03:56:43;;;;;;;15.30;7.60;;;2.70;81.90;;;;;;5032499;28;20658;-75
2022/03/21 03:59:09;;;;;;;15.07;7.13;;;2.70;81.80;;;;;;5031038;28;20188;-76
2022/03/21 04:01:34;;;;;;;15.13;7.37;;;2.70;81.80;;;;;;5030603;28;20191;-76
2022/03/21 04:04:00;;;;;;;14.83;8.73;;;2.70;81.70;;;;;;5031749;28;21209;-77
2022/03/21 04:06:27;;;;;;;15.33;8.10;;;2.70;81.70;;;;;;5032149;28;20223;-76
2022/03/21 04:08:52;;;;;;;16.53;7.80;;;2.70;81.60;;;;;;5030588;28;20177;-76
2022/03/21 04:11:19;;;;;;;17.67;8.10;;;2.70;81.30;;;;;;5030684;28;20419;-76
2022/03/21 04:13:46;;;;;;;17.07;8.33;;;2.60;81.50;;;;;;5030740;28;20686;-76
2022/03/21 04:16:12;;;;;;;16.23;7.00;;;2.60;81.70;;;;;;5030118;28;20442;-78
2022/03/21 04:18:38;;;;;;;14.80;7.73;;;2.50;81.90;;;;;;5030547;28;20411;-75
2022/03/21 04:21:04;;;;;;;14.13;7.30;;;2.50;81.90;;;;;;5030303;28;20455;-77
2022/03/21 04:23:30;;;;;;;17.23;7.80;;;2.50;81.90;;;;;;5030300;28;20204;-75
2022/03/21 04:25:56;;;;;;;20.90;8.50;;;2.40;82.00;;;;;;5031483;28;20411;-75
2022/03/21 04:28:21;;;;;;;22.50;8.93;;;2.40;81.90;;;;;;5032144;28;20183;-76
2022/03/21 04:30:47;;;;;;;25.63;9.00;;;2.40;82.00;;;;;;5029889;28;20231;-75
2022/03/21 04:33:13;;;;;;;18.60;8.53;;;2.40;82.00;;;;;;5030002;28;20600;-75
2022/03/21 04:35:40;;;;;;;15.57;8.40;;;2.40;82.10;;;;;;5031212;28;20173;-76
2022/03/21 04:38:15;;;;;;;14.87;8.43;;;2.30;82.20;;;;;;5030339;28;20186;-75
2022/03/21 04:40:48;;;;;;;15.30;7.83;;;2.30;82.40;;;;;;5031410;28;20462;-76
2022/03/21 04:43:16;;;;;;;14.53;7.50;;;2.30;82.60;;;;;;5030263;28;20553;-77
2022/03/21 04:45:42;;;;;;;16.17;7.67;;;2.20;82.70;;;;;;5030021;28;20407;-76
2022/03/21 04:48:09;;;;;;;20.27;8.20;;;2.20;82.80;;;;;;5029992;28;20947;-75
2022/03/21 04:50:35;;;;;;;16.37;7.00;;;2.20;83.10;;;;;;5031191;28;20436;-77
2022/03/21 04:53:01;;;;;;;19.00;9.40;;;2.10;83.40;;;;;;5030724;28;20422;-77
2022/03/21 04:55:28;;;;;;;17.70;8.90;;;2.10;83.60;;;;;;5028794;28;20458;-75
2022/03/21 04:57:53;;;;;;;15.80;8.43;;;2.00;83.70;;;;;;5030797;28;20431;-76
2022/03/21 05:00:19;;;;;;;13.33;7.13;;;2.00;83.80;;;;;;5029406;28;20451;-76
2022/03/21 05:02:45;;;;;;;18.00;8.77;;;2.00;84.00;;;;;;5029809;28;20192;-75
2022/03/21 05:05:10;;;;;;;14.27;8.03;;;1.90;84.00;;;;;;5029479;28;20192;-76
2022/03/21 05:07:45;;;;;;;17.27;8.20;;;1.90;84.10;;;;;;5030948;28;20248;-75
2022/03/21 05:10:11;;;;;;;17.47;8.03;;;1.90;84.20;;;;;;5030682;28;20176;-76
2022/03/21 05:12:37;;;;;;;17.90;8.73;;;1.90;84.50;;;;;;5029205;28;20450;-75
2022/03/21 05:15:07;;;;;;;26.33;8.27;;;1.80;84.50;;;;;;5029337;28;20854;-76
2022/03/21 05:17:34;;;;;;;17.00;7.47;;;1.80;84.60;;;;;;5030582;28;20594;-76
2022/03/21 05:20:00;;;;;;;19.73;8.43;;;1.70;84.80;;;;;;5030500;28;20418;-75
2022/03/21 05:22:26;;;;;;;14.53;8.30;;;1.70;84.90;;;;;;5030196;28;20550;-75
2022/03/21 05:35:55;;;;;;;20.87;7.90;;;1.60;85.30;;;;;;5030706;28;20509;-75
2022/03/21 05:38:28;;;;;;;26.63;8.80;;;1.70;85.20;;;;;;5030917;28;20396;-75
2022/03/21 05:41:03;;;;;;;19.77;8.80;;;1.70;85.10;;;;;;5030544;28;20592;-76
2022/03/21 05:43:30;;;;;;;19.30;8.90;;;1.70;85.20;;;;;;5030446;28;20427;-75
2022/03/21 05:45:56;;;;;;;14.20;7.03;;;1.60;85.20;;;;;;5029993;28;20403;-75
2022/03/21 05:51:07;;;;;;;15.07;7.77;;;1.70;84.90;;;;;;5030579;28;20188;-75
2022/03/21 05:53:33;;;;;;;16.13;8.43;;;1.70;84.80;;;;;;5030264;28;20598;-76
2022/03/21 05:56:00;;;;;;;17.47;7.70;;;1.70;84.60;;;;;;5029430;28;20583;-75
2022/03/21 05:58:29;;;;;;;16.43;7.33;;;1.80;84.50;;;;;;5029137;28;20196;-76
2022/03/21 06:00:55;;;;;;;13.30;6.67;;;1.80;84.50;;;;;;5030026;28;20443;-76
2022/03/21 06:03:21;;;;;;;17.60;7.57;;;1.80;84.40;;;;;;5030075;28;20806;-75
2022/03/21 06:05:47;;;;;;;17.13;7.77;;;1.90;84.30;;;;;;5028140;28;20428;-76
2022/03/21 06:08:12;;;;;;;13.73;7.17;;;1.90;84.00;;;;;;5029994;28;20994;-75
2022/03/21 06:10:38;;;;;;;13.97;6.87;;;2.00;83.90;;;;;;5030012;28;20169;-75
2022/03/21 06:13:08;;;;;;;13.87;9.80;;;2.10;83.90;;;;;;5028598;28;20197;-77
2022/03/21 06:15:35;;;;;;;15.33;7.63;;;2.10;83.80;;;;;;5029801;28;20165;-76
2022/03/21 06:18:02;;;;;;;14.20;7.30;;;2.20;83.50;;;;;;5028686;28;20510;-75
2022/03/21 06:20:28;;;;;;;16.53;6.57;;;2.20;83.40;;;;;;5029882;28;20484;-75
2022/03/21 06:22:54;;;;;;;14.30;6.93;;;2.30;83.40;;;;;;5028344;28;20525;-75
2022/03/21 06:25:20;;;;;;;22.43;8.20;;;2.40;83.10;;;;;;5028309;28;20777;-75
2022/03/21 06:27:46;;;;;;;13.07;7.13;;;2.40;83.00;;;;;;5029879;28;20408;-75
2022/03/21 06:30:12;;;;;;;13.53;7.00;;;2.50;83.20;;;;;;5030301;28;20302;-75
2022/03/21 06:32:38;;;;;;;13.87;8.13;;;2.50;82.90;;;;;;5028422;28;20506;-76
2022/03/21 06:35:04;;;;;;;13.80;6.97;;;2.60;82.90;;;;;;5029934;28;20180;-77
2022/03/21 06:37:31;;;;;;;16.90;7.50;;;2.70;82.50;;;;;;5028232;28;20419;-75
2022/03/21 06:39:57;;;;;;;14.20;6.60;;;2.70;82.70;;;;;;5028475;28;20442;-76
2022/03/21 06:42:22;;;;;;;13.73;6.50;;;2.80;82.60;;;;;;5029541;28;20462;-76
2022/03/21 06:44:49;;;;;;;22.23;8.00;;;2.90;82.30;;;;;;5028216;28;20189;-76
2022/03/21 06:47:17;;;;;;;18.00;7.20;;;3.00;82.10;;;;;;5029814;28;20177;-76
2022/03/21 06:49:43;;;;;;;15.83;7.80;;;3.10;82.10;;;;;;5028463;28;20419;-76
2022/03/21 06:52:08;;;;;;;15.60;7.83;;;3.20;81.70;;;;;;5028409;28;20417;-76
2022/03/21 06:54:37;;;;;;;14.47;6.83;;;3.40;81.60;;;;;;5028269;28;20220;-76
2022/03/21 06:57:04;;;;;;;12.63;6.83;;;3.50;80.80;;;;;;5027248;28;20216;-77
2022/03/21 06:59:30;;;;;;;14.03;7.30;;;3.60;80.30;;;;;;5027350;28;20957;-75
2022/03/21 07:01:56;;;;;;;11.27;6.37;;;3.80;80.10;;;;;;5028790;28;20465;-76
2022/03/21 07:04:23;;;;;;;13.00;6.97;;;3.90;79.70;;;;;;5027648;28;20435;-77
2022/03/21 07:06:49;;;;;;;10.77;6.50;;;4.10;78.90;;;;;;5026414;28;20788;-75
2022/03/21 07:09:15;;;;;;;14.27;7.40;;;4.20;78.30;;;;;;5026483;28;20426;-76
2022/03/21 07:11:41;;;;;;;15.00;7.50;;;4.30;78.20;;;;;;5022325;28;20420;-76
2022/03/21 07:14:06;;;;;;;15.53;6.47;;;4.50;78.20;;;;;;5027543;28;20232;-76
2022/03/21 07:16:32;;;;;;;14.00;6.40;;;4.60;78.00;;;;;;5026425;28;20204;-76
2022/03/21 07:18:58;;;;;;;17.20;6.77;;;4.70;77.10;;;;;;5029779;28;20172;-76
2022/03/21 07:21:24;;;;;;;11.60;6.30;;;4.80;76.40;;;;;;5030799;28;20196;-77
2022/03/21 07:23:49;;;;;;;20.23;8.20;;;4.90;76.80;;;;;;5030581;28;20216;-76
2022/03/21 07:26:15;;;;;;;14.63;6.90;;;5.10;75.40;;;;;;5032153;28;20450;-76
2022/03/21 07:28:41;;;;;;;14.73;7.23;;;5.20;75.60;;;;;;5030454;28;20184;-76
2022/03/21 07:31:10;;;;;;;24.70;7.60;;;5.30;75.70;;;;;;5030632;28;20220;-76
2022/03/21 07:33:40;;;;;;;11.00;5.93;;;5.40;74.40;;;;;;5031525;28;20200;-75
2022/03/21 07:36:06;;;;;;;12.30;6.93;;;5.40;73.90;;;;;;5030634;28;20419;-76
2022/03/21 07:38:31;;;;;;;12.53;6.53;;;5.50;73.60;;;;;;5030367;28;20429;-77
2022/03/21 07:40:58;;;;;;;14.33;6.13;;;5.60;73.70;;;;;;5030554;28;20738;-76
2022/03/21 07:43:24;;;;;;;15.60;7.80;;;5.60;73.60;;;;;;5031251;28;20326;-77
2022/03/21 07:48:34;;;;;;;16.20;7.90;;;5.80;74.10;;;;;;5032594;28;20469;-77
2022/03/21 07:51:00;;;;;;;14.40;6.40;;;6.00;74.00;;;;;;5030680;28;20427;-77
2022/03/21 07:53:26;;;;;;;19.03;7.17;;;6.10;73.60;;;;;;5025042;28;20235;-77
2022/03/21 07:55:51;;;;;;;13.60;7.10;;;6.20;73.70;;;;;;5026157;28;20265;-77
2022/03/21 07:58:17;;;;;;;11.43;6.83;;;6.20;72.20;;;;;;5022019;28;20518;-77
2022/03/21 08:00:43;;;;;;;14.50;7.50;;;6.10;71.90;;;;;;5024854;28;20288;-77
2022/03/21 08:03:14;;;;;;;14.33;7.40;;;6.10;72.50;;;;;;5025539;28;20315;-77
2022/03/21 08:05:41;;;;;;;17.30;6.50;;;6.20;72.60;;;;;;5030279;28;20455;-78
2022/03/21 08:08:09;;;;;;;13.10;7.30;;;6.40;72.40;;;;;;5029675;28;20430;-77
2022/03/21 08:10:35;;;;;;;13.47;6.60;;;6.50;72.50;;;;;;5029411;28;20473;-77
2022/03/21 08:13:01;;;;;;;14.93;6.77;;;6.50;71.60;;;;;;5029347;28;20455;-77
2022/03/21 08:15:27;;;;;;;14.33;7.13;;;6.60;72.30;;;;;;5029275;28;20454;-77
2022/03/21 08:17:58;;;;;;;12.37;6.43;;;6.70;72.60;;;;;;5029579;28;20455;-78
2022/03/21 08:20:33;;;;;;;13.63;6.93;;;6.80;72.60;;;;;;5029273;28;20426;-77
2022/03/21 08:22:59;;;;;;;15.10;7.30;;;6.90;71.70;;;;;;5022777;28;20997;-77
2022/03/21 08:25:26;;;;;;;17.30;7.27;;;7.10;72.70;;;;;;5022473;28;20423;-77
2022/03/21 08:27:51;;;;;;;17.03;7.50;;;7.20;71.70;;;;;;5028910;28;20464;-77
2022/03/21 08:30:18;;;;;;;11.67;6.60;;;7.30;72.50;;;;;;5022143;28;20487;-76
2022/03/21 08:32:47;;;;;;;13.33;7.33;;;7.30;72.20;;;;;;5029287;28;20658;-78
2022/03/21 08:35:14;;;;;;;17.17;8.67;;;7.50;72.00;;;;;;5030632;28;20407;-77
2022/03/21 08:37:40;;;;;;;14.60;6.93;;;7.40;70.90;;;;;;5029675;28;20481;-77
2022/03/21 08:40:07;;;;;;;12.30;6.73;;;7.60;71.70;;;;;;5029199;28;20424;-75
2022/03/21 08:42:33;;;;;;;17.70;7.80;;;7.60;71.20;;;;;;5030477;28;20656;-77
2022/03/21 08:44:59;;;;;;;16.63;7.37;;;7.70;71.10;;;;;;5030829;28;20435;-77
2022/03/21 08:47:25;;;;;;;11.37;6.20;;;7.80;70.50;;;;;;5029650;28;20204;-77
2022/03/21 08:49:50;;;;;;;18.97;6.80;;;7.90;69.50;;;;;;5028678;28;20177;-78
2022/03/21 08:52:17;;;;;;;12.63;6.93;;;8.00;69.30;;;;;;5029181;28;20419;-78
2022/03/21 08:54:42;;;;;;;14.60;7.43;;;8.10;70.50;;;;;;5028272;28;20214;-78
2022/03/21 08:57:10;;;;;;;17.13;8.10;;;8.20;69.30;;;;;;5027253;28;20518;-78
2022/03/21 08:59:36;;;;;;;15.50;7.60;;;8.40;70.00;;;;;;5029132;28;20185;-78
2022/03/21 09:02:02;;;;;;;18.03;7.40;;;8.50;68.80;;;;;;5023093;28;21008;-78
2022/03/21 09:04:28;;;;;;;15.00;7.23;;;8.50;69.10;;;;;;5026854;28;20889;-77
2022/03/21 09:06:54;;;;;;;16.43;7.30;;;8.60;69.00;;;;;;5029391;28;20465;-77
2022/03/21 09:09:21;;;;;;;15.77;7.93;;;8.70;68.90;;;;;;5028639;28;20921;-78
2022/03/21 09:11:47;;;;;;;14.17;7.00;;;8.80;69.20;;;;;;5030046;28;20419;-78
2022/03/21 09:14:13;;;;;;;13.63;6.93;;;8.90;69.50;;;;;;5027500;28;20459;-78
2022/03/21 09:16:39;;;;;;;14.73;6.97;;;9.10;69.50;;;;;;5026473;28;20434;-78
2022/03/21 09:19:05;;;;;;;12.50;6.90;;;9.10;67.20;;;;;;5029045;28;20472;-78
2022/03/21 09:21:31;;;;;;;17.00;8.40;;;9.10;67.00;;;;;;5024514;28;20505;-78
2022/03/21 09:23:56;;;;;;;14.17;7.70;;;9.30;68.70;;;;;;5025680;28;20439;-78
2022/03/21 09:26:22;;;;;;;14.27;7.50;;;9.40;67.70;;;;;;5017522;28;20609;-78
2022/03/21 09:28:48;;;;;;;12.10;7.03;;;9.40;67.60;;;;;;5016695;28;20224;-78
2022/03/21 09:31:15;;;;;;;13.10;7.13;;;9.50;67.90;;;;;;5023858;28;20263;-78
2022/03/21 09:33:42;;;;;;;12.83;6.93;;;9.50;67.90;;;;;;5019732;28;20849;-78
2022/03/21 09:36:09;;;;;;;16.17;8.00;;;9.50;67.50;;;;;;5015575;28;20462;-78
2022/03/21 09:38:36;;;;;;;15.47;7.50;;;9.60;67.50;;;;;;5025216;28;20428;-78
2022/03/21 09:41:03;;;;;;;14.00;7.70;;;9.70;67.70;;;;;;5022962;28;20921;-78
2022/03/21 09:43:29;;;;;;;15.53;7.93;;;9.70;67.40;;;;;;5016480;28;20983;-78
2022/03/21 09:45:57;;;;;;;13.87;7.67;;;9.80;67.40;;;;;;5022300;28;20415;-78
2022/03/21 09:48:26;;;;;;;11.63;7.53;;;9.80;67.10;;;;;;5028424;28;20177;-77
2022/03/21 09:50:52;;;;;;;14.33;8.23;;;10.00;67.10;;;;;;5027688;28;20428;-77
2022/03/21 09:53:18;;;;;;;15.00;7.77;;;10.20;67.00;;;;;;5015745;28;20440;-78
2022/03/21 09:55:45;;;;;;;14.20;7.07;;;10.40;66.70;;;;;;5008473;28;20419;-78
2022/03/21 09:58:11;;;;;;;17.50;7.73;;;10.50;66.20;;;;;;5022161;28;20424;-78
2022/03/21 10:00:42;;;;;;;19.53;7.17;;;10.60;66.10;;;;;;5016225;28;20418;-78
2022/03/21 10:03:08;;;;;;;18.13;8.73;;;10.70;66.70;;;;;;5008455;28;20458;-78
2022/03/21 10:05:37;;;;;;;15.30;6.83;;;10.80;66.20;;;;;;5027500;28;20411;-78
2022/03/21 10:08:17;;;;;;;14.10;7.57;;;10.90;65.50;;;;;;5029556;28;20404;-78
2022/03/21 10:10:53;;;;;;;16.93;7.17;;;11.00;65.50;;;;;;5024273;28;20797;-78
2022/03/21 10:13:19;;;;;;;12.93;7.30;;;11.10;65.00;;;;;;5027790;28;20423;-78
2022/03/21 10:15:45;;;;;;;15.27;8.10;;;11.20;65.70;;;;;;5027828;28;20427;-78
2022/03/21 10:18:12;;;;;;;14.90;7.80;;;11.30;64.80;;;;;;5027661;28;20478;-78
2022/03/21 10:20:39;;;;;;;16.90;8.00;;;11.40;64.80;;;;;;5027748;28;20414;-78
2022/03/21 10:23:22;;;;;;;14.37;7.13;;;11.50;65.10;;;;;;5021751;28;20512;-78
2022/03/21 10:25:48;;;;;;;14.93;7.40;;;11.60;64.60;;;;;;5008759;28;20542;-77
2022/03/21 10:28:34;;;;;;;15.63;7.40;;;11.80;65.60;;;;;;5008900;28;20949;-76
2022/03/21 10:31:01;;;;;;;14.77;7.37;;;12.00;64.70;;;;;;5028266;28;20467;-76
2022/03/21 10:33:28;;;;;;;13.10;6.80;;;12.20;63.10;;;;;;5021888;28;20435;-77
2022/03/21 10:35:53;;;;;;;13.90;7.67;;;12.20;62.50;;;;;;5015857;28;20427;-77
2022/03/21 10:38:49;;;;;;;11.43;7.33;;;12.00;63.40;;;;;;5026252;28;20423;-76
2022/03/21 10:41:14;;;;;;;12.93;6.70;;;12.00;64.80;;;;;;5014579;28;20312;-77
2022/03/21 10:43:52;;;;;;;13.43;7.20;;;12.20;64.00;;;;;;5011537;28;20885;-77
2022/03/21 10:46:21;;;;;;;26.53;7.90;;;12.10;62.10;;;;;;5025671;28;20187;-76
2022/03/21 10:49:04;;;;;;;13.20;7.80;;;12.10;61.60;;;;;;5028494;28;20422;-76
2022/03/21 10:51:49;;;;;;;12.20;7.20;;;12.20;62.60;;;;;;5032644;28;20921;-80
2022/03/21 10:54:37;;;;;;;15.13;7.67;;;12.30;62.40;;;;;;5031480;28;20538;-78
2022/03/21 10:57:04;;;;;;;12.63;8.00;;;12.40;63.50;;;;;;5033043;28;20421;-79
2022/03/21 10:59:34;;;;;;;15.70;7.70;;;12.70;63.90;;;;;;5016104;28;20419;-78
2022/03/21 11:02:15;;;;;;;15.10;8.03;;;12.80;61.90;;;;;;5013674;28;20455;-78
2022/03/21 11:04:44;;;;;;;14.67;8.03;;;12.90;62.40;;;;;;5014735;28;21026;-79
2022/03/21 11:07:13;;;;;;;12.43;7.20;;;13.00;62.60;;;;;;5015948;28;20420;-77
2022/03/21 11:09:42;;;;;;;14.47;7.87;;;13.00;61.70;;;;;;5037597;28;20409;-80
2022/03/21 11:12:09;;;;;;;15.77;7.83;;;13.10;62.90;;;;;;5032665;28;20430;-78
2022/03/21 11:14:38;;;;;;;15.97;7.97;;;13.20;61.50;;;;;;5033163;28;20431;-77
2022/03/21 11:17:05;;;;;;;13.93;7.43;;;13.20;62.20;;;;;;5033734;28;20502;-78
2022/03/21 11:19:31;;;;;;;16.47;6.83;;;13.30;61.20;;;;;;5032523;28;20430;-80
2022/03/21 11:21:58;;;;;;;15.90;8.00;;;13.40;60.70;;;;;;5034629;28;20457;-78
2022/03/21 11:24:24;;;;;;;13.30;7.47;;;13.60;62.40;;;;;;5049672;28;20434;-79
2022/03/21 11:27:08;;;;;;;12.10;6.90;;;13.80;62.00;;;;;;5054216;28;20471;-78
2022/03/21 11:30:04;;;;;;;14.00;7.47;;;13.90;61.50;;;;;;5052231;28;20168;-78
2022/03/21 11:33:25;;;;;;;13.57;7.27;;;14.00;61.70;;;;;;5034909;28;20427;-78
2022/03/21 11:35:58;;;;;;;15.93;7.50;;;14.20;61.00;;;;;;4991788;28;20435;-77
2022/03/21 11:38:29;;;;;;;14.83;7.50;;;14.30;60.50;;;;;;5036899;28;20401;-78
2022/03/21 11:41:21;;;;;;;16.70;8.37;;;14.40;60.80;;;;;;5034873;28;20502;-78
2022/03/21 11:44:08;;;;;;;11.43;7.20;;;14.60;60.50;;;;;;5035968;28;20467;-79
2022/03/21 11:46:35;;;;;;;10.90;7.43;;;14.60;60.50;;;;;;5026672;28;20416;-79
2022/03/21 11:49:28;;;;;;;11.80;7.93;;;14.80;60.90;;;;;;5024754;28;20928;-79
2022/03/21 11:52:00;;;;;;;15.07;7.93;;;14.80;59.20;;;;;;5013507;28;20434;-78
2022/03/21 11:54:32;;;;;;;13.00;7.53;;;14.90;60.00;;;;;;5023731;28;20436;-79
2022/03/21 11:57:16;;;;;;;15.43;8.23;;;15.10;61.10;;;;;;5033471;28;20426;-78
2022/03/21 11:59:41;;;;;;;10.80;6.90;;;15.20;59.60;;;;;;5031805;28;20516;-80
2022/03/21 12:02:10;;;;;;;16.97;7.87;;;15.30;59.90;;;;;;5032984;28;20610;-78
2022/03/21 12:04:39;;;;;;;13.50;8.40;;;15.50;59.70;;;;;;5034825;28;20197;-80
2022/03/21 12:07:13;;;;;;;11.03;7.20;;;15.50;58.60;;;;;;5035319;28;20427;-79
2022/03/21 12:09:47;;;;;;;20.70;8.40;;;15.60;60.10;;;;;;5033487;28;20852;-77
2022/03/21 12:12:14;;;;;;;14.57;8.03;;;15.90;59.30;;;;;;5038983;28;20490;-77
2022/03/21 12:14:40;;;;;;;10.80;7.40;;;15.90;58.00;;;;;;5019762;28;20999;-77
2022/03/21 12:17:12;;;;;;;14.63;7.77;;;15.80;58.20;;;;;;5032028;28;20910;-77
2022/03/21 12:20:01;;;;;;;12.70;8.50;;;15.80;57.80;;;;;;5035728;28;20465;-77
2022/03/21 12:22:30;;;;;;;13.47;8.03;;;16.00;57.80;;;;;;5035196;28;20944;-78
2022/03/21 12:24:57;;;;;;;14.70;8.40;;;16.20;57.70;;;;;;5032434;28;20936;-78
2022/03/21 12:27:52;;;;;;;13.23;7.90;;;16.20;56.70;;;;;;5024847;28;20429;-78
2022/03/21 12:30:20;;;;;;;13.07;7.03;;;16.00;55.70;;;;;;5026555;28;20466;-78
2022/03/21 12:32:56;;;;;;;14.43;6.67;;;15.90;55.60;;;;;;5031318;28;21301;-81
2022/03/21 12:35:45;;;;;;;10.50;6.70;;;15.70;55.00;;;;;;5021947;28;20415;-77
2022/03/21 12:38:23;;;;;;;12.93;7.40;;;15.80;56.40;;;;;;5008314;28;20425;-77
2022/03/21 12:40:58;;;;;;;20.73;7.17;;;16.00;54.90;;;;;;5022300;28;20419;-78
2022/03/21 12:43:41;;;;;;;13.47;7.27;;;16.40;56.70;;;;;;5013416;28;20923;-79
2022/03/21 12:46:06;;;;;;;10.73;6.50;;;16.80;57.20;;;;;;5028983;28;20994;-78
2022/03/21 12:48:34;;;;;;;15.80;7.80;;;17.00;55.10;;;;;;5022580;28;20421;-77
2022/03/21 12:51:00;;;;;;;16.33;7.93;;;17.00;55.10;;;;;;5021690;28;20319;-78
2022/03/21 12:53:48;;;;;;;11.97;7.77;;;17.00;55.90;;;;;;5029655;28;20452;-78
2022/03/21 12:56:16;;;;;;;11.97;7.00;;;16.90;54.90;;;;;;5027635;28;20412;-76
2022/03/21 12:58:45;;;;;;;13.60;7.30;;;16.80;53.80;;;;;;5012416;28;20423;-80
2022/03/21 13:01:16;;;;;;;13.40;7.30;;;16.90;55.50;;;;;;5013108;28;20456;-79
2022/03/21 13:03:42;;;;;;;11.37;7.60;;;17.20;56.80;;;;;;5013717;28;20432;-79
2022/03/21 13:11:46;;;;;;;13.70;7.00;;;17.40;55.70;;;;;;5022655;28;20422;-80
2022/03/21 13:14:14;;;;;;;13.20;7.70;;;17.50;54.60;;;;;;5033029;28;20454;-79